Time;durP1;ratioP1;P1;durP2;ratioP2;P2;SDS_P1;SDS_P2;PMS_P1;PMS_P2;Temp;Humidity;BMP_temperature;BMP_pressure;BME280_temperature;BME280_humidity;BME280_pressure;Samples;Min_cycle;Max_cycle;Signal;HPM_P1;HPM_P2
2022/07/10 00:01:05;;;;;;;2.80;1.95;;;;;;;21.01;57.21;99327.03;5033874;28;20396;-82
2022/07/10 00:03:31;;;;;;;3.13;2.08;;;;;;;21.00;56.97;99317.25;5046159;28;20039;-83
2022/07/10 00:05:56;;;;;;;3.58;2.28;;;;;;;21.05;57.09;99330.38;5045100;28;20699;-81
2022/07/10 00:08:22;;;;;;;3.88;1.92;;;;;;;21.04;57.64;99334.03;5048046;28;20418;-81
2022/07/10 00:10:47;;;;;;;2.72;1.60;;;;;;;21.01;57.19;99334.22;5048359;28;20033;-80
2022/07/10 00:13:13;;;;;;;2.88;1.92;;;;;;;20.99;57.94;99320.03;5047838;28;20497;-80
2022/07/10 00:15:38;;;;;;;9.70;1.85;;;;;;;20.96;57.64;99325.59;5047360;28;20040;-79
2022/07/10 00:18:04;;;;;;;3.92;2.15;;;;;;;21.04;57.82;99326.00;5047527;28;20040;-82
2022/07/10 00:20:29;;;;;;;2.42;1.40;;;;;;;20.89;57.51;99303.69;5048434;28;20426;-81
2022/07/10 00:22:55;;;;;;;2.70;1.83;;;;;;;20.88;57.49;99301.97;5048299;28;20033;-80
2022/07/10 00:25:20;;;;;;;1.88;1.52;;;;;;;20.95;57.57;99331.94;5047213;28;20025;-80
2022/07/10 00:27:46;;;;;;;2.00;1.45;;;;;;;20.83;57.58;99309.44;5028024;28;20580;-80
2022/07/10 00:30:11;;;;;;;3.08;1.98;;;;;;;20.99;57.61;99320.94;5028137;28;20033;-80
2022/07/10 00:32:37;;;;;;;3.47;2.00;;;;;;;20.93;57.58;99322.16;5028476;28;20049;-80
2022/07/10 00:35:04;;;;;;;1.70;1.30;;;;;;;20.88;58.03;99324.28;5048586;28;20415;-80
2022/07/10 00:37:29;;;;;;;1.83;1.65;;;;;;;20.93;58.05;99316.81;5030211;28;20025;-79
2022/07/10 00:39:55;;;;;;;2.33;1.45;;;;;;;21.02;57.36;99319.84;5027997;28;20037;-81
2022/07/10 00:42:21;;;;;;;2.40;1.65;;;;;;;20.96;58.12;99325.59;5033094;28;20408;-81
2022/07/10 00:44:47;;;;;;;3.17;2.30;;;;;;;20.87;57.36;99308.31;5048323;28;20021;-82
2022/07/10 00:47:14;;;;;;;3.55;2.15;;;;;;;20.87;57.31;99300.25;5047758;28;20044;-81
2022/07/10 00:49:39;;;;;;;4.28;2.67;;;;;;;20.75;57.80;99293.84;5028463;28;20040;-81
2022/07/10 00:52:11;;;;;;;2.60;1.70;;;;;;;20.90;57.75;99308.09;5029790;28;20030;-82
2022/07/10 00:54:37;;;;;;;3.13;2.00;;;;;;;20.75;57.76;99291.19;5027943;28;20158;-80
2022/07/10 00:57:05;;;;;;;2.70;1.77;;;;;;;20.82;57.51;99286.28;5027978;28;20029;-80
2022/07/10 00:59:31;;;;;;;3.38;2.38;;;;;;;20.75;57.41;99283.13;5028487;28;20083;-83
2022/07/10 01:01:56;;;;;;;1.83;1.38;;;;;;;20.94;56.60;99290.84;5029531;28;20475;-83
2022/07/10 01:04:22;;;;;;;3.17;2.45;;;;;;;20.92;57.14;99306.19;5028075;28;20054;-80
2022/07/10 01:06:48;;;;;;;3.58;1.48;;;;;;;20.86;56.93;99291.34;5028103;28;20029;-83
2022/07/10 01:09:13;;;;;;;3.80;1.90;;;;;;;20.83;57.01;99293.38;5027903;28;20091;-84
2022/07/10 01:11:39;;;;;;;3.70;1.95;;;;;;;20.88;57.09;99299.28;5046044;28;20043;-81
2022/07/10 01:14:05;;;;;;;1.52;1.25;;;;;;;20.88;55.95;99285.88;5048447;28;20075;-81
2022/07/10 01:16:31;;;;;;;5.28;2.35;;;;;;;20.84;56.15;99274.50;5029605;28;20457;-81
2022/07/10 01:18:58;;;;;;;2.90;1.83;;;;;;;21.06;56.37;99295.41;5048247;28;20040;-81
2022/07/10 01:21:34;;;;;;;2.42;1.65;;;;;;;20.86;56.48;99279.78;5047128;28;20032;-81
2022/07/10 01:24:04;;;;;;;3.67;1.67;;;;;;;20.91;56.46;99291.94;5047703;28;20028;-80
2022/07/10 01:26:30;;;;;;;2.42;1.92;;;;;;;20.87;56.41;99278.81;5047487;28;20586;-81
2022/07/10 01:28:58;;;;;;;3.05;1.80;;;;;;;20.95;56.04;99283.69;5047634;28;20116;-80
2022/07/10 01:31:27;;;;;;;3.10;1.80;;;;;;;20.74;56.49;99276.03;5047497;28;20043;-81
2022/07/10 01:33:54;;;;;;;3.35;2.05;;;;;;;20.71;56.80;99268.19;5047784;28;20056;-82
2022/07/10 01:36:23;;;;;;;3.80;2.28;;;;;;;20.83;56.95;99288.84;5047397;28;20112;-81
2022/07/10 01:38:51;;;;;;;2.97;1.70;;;;;;;20.72;57.48;99286.00;5047313;28;20090;-81
2022/07/10 01:41:17;;;;;;;2.95;1.45;;;;;;;20.76;56.94;99276.81;5047180;28;20033;-81
2022/07/10 01:43:44;;;;;;;2.80;1.75;;;;;;;20.77;57.29;99275.84;5047379;28;20497;-80
2022/07/10 01:46:12;;;;;;;3.17;1.85;;;;;;;20.88;56.79;99281.41;5047434;28;20423;-82
2022/07/10 01:48:38;;;;;;;2.92;1.80;;;;;;;20.60;56.99;99249.25;5047045;28;20044;-81
2022/07/10 01:51:05;;;;;;;3.38;1.80;;;;;;;20.53;56.62;99248.78;5040263;28;20090;-81
2022/07/10 01:53:31;;;;;;;3.08;2.40;;;;;;;20.71;57.07;99271.75;5047281;28;20028;-80
2022/07/10 01:55:58;;;;;;;3.45;1.95;;;;;;;20.71;57.31;99268.19;5047881;28;20098;-80
2022/07/10 01:58:23;;;;;;;3.25;1.80;;;;;;;20.59;56.91;99237.69;5046783;28;20028;-81
2022/07/10 02:00:49;;;;;;;3.65;2.10;;;;;;;20.82;57.12;99271.06;5029544;28;20041;-82
2022/07/10 02:06:15;;;;;;;3.90;2.35;;;;;;;20.57;57.31;99250.28;4985768;28;20038;-80
2022/07/10 02:08:40;;;;;;;4.07;2.30;;;;;;;20.68;56.95;99249.63;5031171;28;20568;-81
2022/07/10 02:11:06;;;;;;;4.97;2.15;;;;;;;20.69;57.01;99265.63;5040727;28;20040;-80
2022/07/10 02:13:31;;;;;;;4.10;2.33;;;;;;;20.59;57.54;99264.47;5033920;28;20040;-83
2022/07/10 02:15:57;;;;;;;2.08;1.65;;;;;;;20.63;57.26;99267.81;5047140;28;20029;-81
2022/07/10 02:18:23;;;;;;;2.88;1.88;;;;;;;20.41;57.50;99263.78;5025723;28;20036;-81
2022/07/10 02:20:50;;;;;;;2.45;1.77;;;;;;;20.27;57.48;99250.41;5047388;28;20037;-80
2022/07/10 02:23:16;;;;;;;4.88;2.30;;;;;;;20.52;57.56;99276.53;5029187;28;20493;-81
2022/07/10 02:25:41;;;;;;;4.07;1.98;;;;;;;20.51;57.55;99274.78;5047147;28;20047;-81
2022/07/10 02:28:10;;;;;;;3.40;2.15;;;;;;;20.34;57.71;99275.84;5046329;28;20071;-80
2022/07/10 02:30:36;;;;;;;2.03;1.70;;;;;;;20.23;57.40;99255.06;5046354;28;20033;-82
2022/07/10 02:33:01;;;;;;;2.70;1.80;;;;;;;20.24;57.26;99272.03;5046281;28;20053;-81
2022/07/10 02:35:27;;;;;;;2.67;1.73;;;;;;;20.29;58.03;99278.81;5046439;28;20033;-81
2022/07/10 02:37:52;;;;;;;5.05;2.90;;;;;;;20.27;57.21;99271.84;5046518;28;20036;-80
2022/07/10 02:40:18;;;;;;;4.10;2.05;;;;;;;20.20;58.13;99274.91;5029794;28;20036;-81
2022/07/10 02:42:43;;;;;;;4.97;2.85;;;;;;;20.11;57.54;99253.16;5030442;28;20033;-80
2022/07/10 02:45:09;;;;;;;2.03;1.33;;;;;;;20.25;57.41;99265.69;5046694;28;20418;-80
2022/07/10 02:47:35;;;;;;;3.05;1.88;;;;;;;20.24;57.73;99280.06;5044142;28;20168;-82
2022/07/10 02:50:01;;;;;;;2.25;1.55;;;;;;;20.09;57.81;99263.09;5038532;28;20048;-82
2022/07/10 02:52:26;;;;;;;3.92;1.95;;;;;;;20.12;58.08;99271.81;5026807;28;20040;-81
2022/07/10 02:54:52;;;;;;;3.03;1.95;;;;;;;20.06;58.96;99272.19;5026276;28;20120;-82
2022/07/10 02:57:18;;;;;;;4.05;2.65;;;;;;;20.10;57.68;99260.34;5036347;28;20064;-83
2022/07/10 02:59:44;;;;;;;3.33;2.20;;;;;;;19.88;58.25;99258.13;5041213;28;20060;-81
2022/07/10 03:02:09;;;;;;;2.53;1.45;;;;;;;19.98;58.54;99275.31;5026969;28;20087;-81
2022/07/10 03:04:35;;;;;;;3.33;2.20;;;;;;;19.98;58.55;99274.47;5026395;28;20450;-80
2022/07/10 03:07:00;;;;;;;3.15;1.85;;;;;;;20.00;58.36;99273.44;5033269;28;20040;-83
2022/07/10 03:09:26;;;;;;;2.97;1.90;;;;;;;19.90;58.73;99271.41;5046424;28;20047;-81
2022/07/10 03:11:52;;;;;;;2.40;1.88;;;;;;;19.78;59.78;99281.03;5046610;28;20036;-85
2022/07/10 03:14:17;;;;;;;3.15;1.80;;;;;;;19.94;59.43;99276.47;5046529;28;20414;-82
2022/07/10 03:16:43;;;;;;;2.38;1.58;;;;;;;19.97;59.76;99287.00;5038524;28;20082;-81
2022/07/10 03:19:09;;;;;;;2.33;1.83;;;;;;;19.89;59.53;99278.56;5025790;28;20030;-85
2022/07/10 03:21:34;;;;;;;2.78;1.85;;;;;;;20.11;59.27;99283.50;5018385;28;20045;-81
2022/07/10 03:24:00;;;;;;;2.95;2.00;;;;;;;19.92;59.67;99274.84;5046328;28;20040;-82
2022/07/10 03:26:26;;;;;;;4.25;2.67;;;;;;;19.97;59.53;99283.44;5046249;28;20540;-82
2022/07/10 03:28:52;;;;;;;3.22;2.60;;;;;;;19.65;59.88;99259.47;5044665;28;20883;-83
2022/07/10 03:31:17;;;;;;;3.38;1.92;;;;;;;19.68;59.92;99240.56;5028046;28;20045;-81
2022/07/10 03:33:43;;;;;;;4.60;2.13;;;;;;;19.94;59.58;99264.91;5045943;28;20060;-81
2022/07/10 03:36:08;;;;;;;4.05;2.58;;;;;;;19.82;59.95;99264.69;5045780;28;20033;-82
2022/07/10 03:38:34;;;;;;;1.75;1.42;;;;;;;19.80;60.49;99255.03;5046101;28;20044;-81
2022/07/10 03:40:59;;;;;;;2.88;1.95;;;;;;;19.74;60.55;99263.38;5040549;28;20573;-80
2022/07/10 03:43:24;;;;;;;3.72;2.70;;;;;;;19.71;60.11;99252.88;5029692;28;20040;-80
2022/07/10 03:45:51;;;;;;;2.78;1.95;;;;;;;19.79;60.34;99264.88;5045658;28;20061;-80
2022/07/10 03:48:17;;;;;;;4.32;2.35;;;;;;;19.71;60.66;99235.03;5027213;28;20045;-80
2022/07/10 03:50:43;;;;;;;3.47;2.45;;;;;;;19.74;60.40;99223.25;5026504;28;20091;-80
2022/07/10 03:53:09;;;;;;;3.47;1.98;;;;;;;20.06;60.13;99249.91;5029774;28;20033;-84
2022/07/10 03:55:34;;;;;;;2.78;1.73;;;;;;;19.95;60.51;99254.09;5033290;28;20033;-80
2022/07/10 03:58:02;;;;;;;2.78;2.20;;;;;;;19.90;60.64;99245.50;5049161;28;20509;-81
2022/07/10 04:00:32;;;;;;;3.90;2.58;;;;;;;20.01;60.36;99250.19;5049397;28;20029;-84
2022/07/10 04:02:59;;;;;;;4.90;2.67;;;;;;;19.98;60.82;99258.41;5049624;28;20037;-81
2022/07/10 04:05:26;;;;;;;2.40;1.73;;;;;;;19.75;60.69;99224.97;5049019;28;20024;-82
2022/07/10 04:07:52;;;;;;;4.45;2.60;;;;;;;19.90;60.49;99244.66;5049530;28;20037;-82
2022/07/10 04:10:17;;;;;;;5.45;3.15;;;;;;;20.08;60.84;99248.88;5049197;28;20037;-83
2022/07/10 04:12:44;;;;;;;4.20;2.33;;;;;;;20.24;60.24;99251.44;5045935;28;20034;-80
2022/07/10 04:15:10;;;;;;;3.03;2.20;;;;;;;20.23;60.29;99225.63;5031845;28;20120;-80
2022/07/10 04:17:35;;;;;;;3.38;2.58;;;;;;;20.42;59.77;99240.53;5046873;28;20140;-80
2022/07/10 04:20:01;;;;;;;3.22;2.28;;;;;;;20.61;59.97;99251.81;5049388;28;20040;-84
2022/07/10 04:22:27;;;;;;;3.85;2.55;;;;;;;20.50;60.02;99249.81;5048826;28;20076;-85
2022/07/10 04:24:54;;;;;;;2.83;1.75;;;;;;;20.62;59.39;99245.53;5029418;28;20022;-81
2022/07/10 04:27:19;;;;;;;3.92;2.50;;;;;;;20.68;58.81;99231.75;5047669;28;20029;-81
2022/07/10 04:29:45;;;;;;;2.60;1.92;;;;;;;20.73;58.28;99237.69;5048757;28;20036;-81
2022/07/10 04:32:11;;;;;;;2.58;2.15;;;;;;;20.75;59.05;99248.28;5049075;28;20041;-80
2022/07/10 04:34:36;;;;;;;2.90;2.47;;;;;;;20.84;59.04;99238.81;5048752;28;20043;-80
2022/07/10 04:37:02;;;;;;;3.17;2.22;;;;;;;20.83;58.34;99229.03;5048651;28;20037;-80
2022/07/10 04:39:28;;;;;;;3.92;2.65;;;;;;;21.04;58.84;99233.00;5048997;28;20037;-83
2022/07/10 04:41:54;;;;;;;4.15;2.47;;;;;;;21.15;57.79;99243.03;5048779;28;20528;-80
2022/07/10 04:44:19;;;;;;;5.55;2.45;;;;;;;21.25;57.88;99256.66;5030175;28;20550;-81
2022/07/10 04:46:45;;;;;;;4.47;2.53;;;;;;;21.16;57.91;99238.50;5028592;28;20116;-79
2022/07/10 04:49:10;;;;;;;4.53;2.75;;;;;;;21.32;57.46;99246.38;5028333;28;20124;-79
2022/07/10 04:51:36;;;;;;;2.28;1.65;;;;;;;21.47;56.64;99258.78;5031499;28;20033;-82
2022/07/10 04:54:02;;;;;;;4.55;2.88;;;;;;;21.50;57.80;99268.47;5048055;28;20533;-82
2022/07/10 04:56:27;;;;;;;4.18;2.90;;;;;;;21.63;57.81;99282.81;5048044;28;20107;-81
2022/07/10 04:58:53;;;;;;;4.45;2.78;;;;;;;21.54;56.80;99265.50;5048116;28;20037;-83
2022/07/10 05:01:20;;;;;;;4.32;2.75;;;;;;;21.88;57.38;99276.63;5048142;28;20973;-82
2022/07/10 05:03:45;;;;;;;3.38;2.58;;;;;;;22.12;56.80;99275.88;5047155;28;20116;-81
2022/07/10 05:06:11;;;;;;;4.00;2.20;;;;;;;22.13;56.55;99256.13;5048110;28;20136;-80
2022/07/10 05:08:36;;;;;;;2.88;1.95;;;;;;;22.31;56.00;99270.97;5048661;28;20037;-82
2022/07/10 05:11:02;;;;;;;3.42;2.17;;;;;;;22.18;55.54;99276.34;5048484;28;20461;-81
2022/07/10 05:13:27;;;;;;;4.65;2.80;;;;;;;22.21;55.48;99267.19;5047946;28;20033;-81
2022/07/10 05:15:53;;;;;;;1.95;1.58;;;;;;;22.41;54.14;99275.72;5029189;28;20045;-81
2022/07/10 05:18:18;;;;;;;7.03;2.30;;;;;;;22.23;54.85;99267.97;5047726;28;20043;-80
2022/07/10 05:20:44;;;;;;;3.65;2.20;;;;;;;22.30;54.57;99279.13;5048103;28;20056;-82
2022/07/10 05:23:11;;;;;;;3.83;2.80;;;;;;;22.33;54.57;99279.78;5045624;28;20552;-81
2022/07/10 05:25:37;;;;;;;2.20;1.90;;;;;;;22.22;54.84;99258.16;5047517;28;20033;-80
2022/07/10 05:28:04;;;;;;;4.03;2.38;;;;;;;22.37;54.87;99295.69;5047409;28;20494;-80
2022/07/10 05:30:30;;;;;;;3.22;1.98;;;;;;;22.40;54.54;99292.78;5047975;28;20036;-80
2022/07/10 05:32:55;;;;;;;3.10;2.08;;;;;;;22.51;54.89;99271.41;5047753;28;20045;-82
2022/07/10 05:35:21;;;;;;;3.03;2.53;;;;;;;22.51;54.00;99300.97;5047432;28;20551;-80
2022/07/10 05:37:46;;;;;;;4.05;2.83;;;;;;;22.51;54.90;99266.03;5046820;28;20124;-82
2022/07/10 05:40:12;;;;;;;3.83;2.33;;;;;;;22.88;53.61;99288.44;5047670;28;20029;-81
2022/07/10 05:42:38;;;;;;;2.88;2.15;;;;;;;22.83;53.61;99266.41;5047702;28;20037;-80
2022/07/10 05:45:05;;;;;;;1.77;1.45;;;;;;;23.00;53.56;99283.13;5047275;28;20036;-81
2022/07/10 05:47:31;;;;;;;3.38;2.53;;;;;;;23.09;53.38;99287.00;5046909;28;20048;-80
2022/07/10 05:49:56;;;;;;;6.75;2.70;;;;;;;23.30;52.89;99284.56;5047582;28;20040;-81
2022/07/10 05:52:22;;;;;;;3.55;2.60;;;;;;;23.09;53.23;99285.16;5047040;28;20087;-80
2022/07/10 05:54:47;;;;;;;3.20;2.22;;;;;;;23.31;52.77;99279.06;5029304;28;20044;-83
2022/07/10 05:57:13;;;;;;;5.18;2.72;;;;;;;23.50;53.15;99270.47;5038801;28;20029;-80
2022/07/10 05:59:38;;;;;;;3.03;2.13;;;;;;;23.84;53.14;99286.78;5027426;28;20527;-79
2022/07/10 06:02:04;;;;;;;3.03;1.92;;;;;;;23.82;52.41;99298.59;5039958;28;20037;-82
2022/07/10 06:04:30;;;;;;;3.75;2.08;;;;;;;23.82;51.20;99260.91;5047304;28;20053;-81
2022/07/10 06:06:55;;;;;;;3.67;2.60;;;;;;;24.18;51.40;99291.41;5046969;28;20037;-81
2022/07/10 06:09:21;;;;;;;2.67;1.90;;;;;;;24.24;49.27;99289.09;5047110;28;20041;-82
2022/07/10 06:11:48;;;;;;;3.22;2.40;;;;;;;24.17;50.91;99287.00;5046823;28;20044;-83
2022/07/10 06:14:13;;;;;;;4.25;3.40;;;;;;;24.22;50.53;99288.34;5045548;28;20086;-80
2022/07/10 06:16:39;;;;;;;4.53;3.00;;;;;;;24.28;51.21;99287.88;5046562;28;20060;-82
2022/07/10 06:19:05;;;;;;;4.20;2.13;;;;;;;24.44;50.81;99284.81;5045385;28;20039;-87
2022/07/10 06:21:30;;;;;;;3.13;1.98;;;;;;;24.72;49.32;99277.25;5026872;28;20095;-82
2022/07/10 06:23:55;;;;;;;2.63;1.80;;;;;;;24.68;49.03;99286.56;5039879;28;20155;-81
2022/07/10 06:26:21;;;;;;;2.33;1.70;;;;;;;24.70;49.83;99278.34;5028988;28;20033;-81
2022/07/10 06:28:46;;;;;;;8.23;3.17;;;;;;;24.63;49.58;99299.56;5045067;28;20511;-81
2022/07/10 06:31:12;;;;;;;5.22;2.97;;;;;;;24.70;49.58;99256.78;5032512;28;20037;-81
2022/07/10 06:33:38;;;;;;;3.53;2.35;;;;;;;24.66;48.68;99278.59;5035993;28;20071;-84
2022/07/10 06:36:05;;;;;;;4.10;3.05;;;;;;;24.89;49.60;99261.56;5042515;28;20040;-81
2022/07/10 06:38:30;;;;;;;3.47;2.33;;;;;;;25.17;49.36;99273.63;5039189;28;20403;-79
2022/07/10 06:40:56;;;;;;;2.92;2.20;;;;;;;25.45;48.27;99272.22;5033296;28;20041;-81
2022/07/10 06:43:21;;;;;;;4.30;2.30;;;;;;;25.14;47.87;99279.28;5045586;28;20094;-80
2022/07/10 06:45:47;;;;;;;2.70;1.92;;;;;;;25.42;48.88;99264.38;5046131;28;20025;-80
2022/07/10 06:48:14;;;;;;;2.80;1.88;;;;;;;25.84;47.38;99286.06;5046188;28;20037;-80
2022/07/10 06:50:40;;;;;;;2.97;1.77;;;;;;;25.43;47.02;99282.28;5044556;28;20025;-79
2022/07/10 06:53:06;;;;;;;4.93;2.58;;;;;;;25.65;47.72;99265.13;5043996;28;20499;-81
2022/07/10 06:55:32;;;;;;;2.60;2.33;;;;;;;26.16;46.96;99268.94;5044765;28;20090;-83
2022/07/10 06:57:58;;;;;;;4.00;2.38;;;;;;;25.84;46.54;99275.25;5027741;28;20029;-80
2022/07/10 07:00:24;;;;;;;3.78;2.72;;;;;;;25.49;47.55;99279.06;5026647;28;20049;-83
2022/07/10 07:02:50;;;;;;;3.08;1.92;;;;;;;25.12;47.75;99289.34;5032263;28;20502;-81
2022/07/10 07:05:16;;;;;;;2.60;2.22;;;;;;;25.32;48.36;99274.25;5042167;28;20037;-81
2022/07/10 07:07:41;;;;;;;3.20;2.28;;;;;;;25.43;48.25;99290.38;5015370;28;20749;-83
2022/07/10 07:10:08;;;;;;;3.38;1.90;;;;;;;25.63;49.72;99294.13;5045435;28;20068;-81
2022/07/10 07:12:34;;;;;;;2.78;2.10;;;;;;;25.97;48.70;99279.59;5045563;28;20111;-82
2022/07/10 07:14:59;;;;;;;3.20;2.20;;;;;;;26.05;47.09;99279.81;5044326;28;20108;-83
2022/07/10 07:17:33;;;;;;;2.80;1.95;;;;;;;26.43;46.89;99290.00;5045371;28;20041;-83
2022/07/10 07:25:27;;;;;;;3.40;2.38;;;;;;;27.39;46.19;99268.00;5030476;28;20103;-82
2022/07/10 07:27:53;;;;;;;3.50;2.45;;;;;;;27.49;45.02;99265.28;5046395;28;20041;-83
2022/07/10 07:30:19;;;;;;;3.75;2.20;;;;;;;26.80;47.34;99280.50;5050431;28;20060;-84
2022/07/10 07:32:45;;;;;;;3.67;2.33;;;;;;;27.32;43.39;99280.38;5047283;28;20055;-82
2022/07/10 07:35:12;;;;;;;3.38;2.15;;;;;;;27.36;44.39;99254.75;5050151;28;20490;-82
2022/07/10 07:37:39;;;;;;;3.10;2.40;;;;;;;27.16;43.32;99270.06;5050307;28;20074;-84
2022/07/10 07:40:13;;;;;;;5.10;2.70;;;;;;;26.56;45.32;99287.06;5048579;28;20407;-84
2022/07/10 07:42:40;;;;;;;4.20;2.53;;;;;;;26.69;44.53;99280.59;5030396;28;20151;-82
2022/07/10 07:45:07;;;;;;;3.38;2.45;;;;;;;26.31;47.00;99285.69;5029884;28;20102;-83
2022/07/10 07:47:46;;;;;;;4.32;2.40;;;;;;;26.51;46.04;99285.75;5023398;28;20544;-84
2022/07/10 07:50:15;;;;;;;2.80;1.77;;;;;;;26.98;44.20;99288.81;5049732;28;20036;-85
2022/07/10 07:52:41;;;;;;;3.92;2.45;;;;;;;26.74;45.23;99279.22;5049382;28;20812;-84
2022/07/10 07:55:07;;;;;;;3.63;2.50;;;;;;;26.22;46.81;99281.06;5049637;28;20037;-84
2022/07/10 07:57:33;;;;;;;3.72;2.67;;;;;;;26.41;45.53;99272.19;5048719;28;20040;-82
2022/07/10 07:59:58;;;;;;;7.18;2.20;;;;;;;26.50;46.03;99265.97;5049662;28;20600;-84
2022/07/10 08:02:23;;;;;;;3.55;2.38;;;;;;;26.89;44.42;99287.78;5048634;28;20418;-86
2022/07/10 08:04:49;;;;;;;2.83;1.98;;;;;;;27.08;45.75;99254.53;4990643;28;20475;-86
2022/07/10 08:07:15;;;;;;;4.45;2.13;;;;;;;27.53;44.74;99274.84;5011265;28;20149;-85
2022/07/10 08:09:40;;;;;;;4.70;3.17;;;;;;;27.62;43.77;99278.53;5009896;28;20049;-85
2022/07/10 08:12:06;;;;;;;3.17;2.45;;;;;;;27.49;43.34;99268.00;5009581;28;20492;-84
2022/07/10 08:14:31;;;;;;;3.88;2.55;;;;;;;27.52;45.21;99284.81;5009441;28;20049;-85
2022/07/10 08:16:57;;;;;;;2.85;1.92;;;;;;;27.66;42.30;99285.38;5009101;28;20034;-85
2022/07/10 08:19:23;;;;;;;3.22;2.35;;;;;;;27.94;42.43;99291.78;5007907;28;20088;-84
2022/07/10 08:21:48;;;;;;;6.40;3.50;;;;;;;28.20;43.75;99292.06;5009053;28;20862;-84
2022/07/10 08:24:14;;;;;;;4.20;3.33;;;;;;;28.75;41.85;99291.34;5009767;28;20060;-83
2022/07/10 08:26:40;;;;;;;4.32;2.50;;;;;;;29.13;40.17;99268.72;5009384;28;20087;-83
2022/07/10 08:29:06;;;;;;;3.58;2.55;;;;;;;28.32;42.20;99281.06;5008988;28;20122;-83
2022/07/10 08:31:33;;;;;;;3.58;2.15;;;;;;;28.19;42.29;99271.38;5008617;28;20038;-84
2022/07/10 08:33:59;;;;;;;3.42;2.47;;;;;;;28.14;41.50;99264.69;5008964;28;20049;-84
2022/07/10 08:36:26;;;;;;;2.47;1.88;;;;;;;27.48;42.81;99258.16;5008858;28;20756;-84
2022/07/10 08:38:53;;;;;;;4.63;3.10;;;;;;;27.36;42.67;99251.16;5007993;28;20890;-84
2022/07/10 08:41:24;;;;;;;3.58;2.50;;;;;;;27.28;46.01;99246.41;5009567;28;20732;-84
2022/07/10 08:43:50;;;;;;;4.32;2.67;;;;;;;27.72;43.94;99271.28;5008503;28;20776;-83
2022/07/10 08:46:17;;;;;;;3.25;2.40;;;;;;;27.89;44.64;99261.56;5009045;28;20119;-81
2022/07/10 08:48:48;;;;;;;3.33;2.28;;;;;;;27.91;42.98;99250.56;5009425;28;20430;-83
2022/07/10 08:51:22;;;;;;;3.88;2.70;;;;;;;27.71;43.66;99284.97;5009314;28;20467;-85
2022/07/10 08:53:51;;;;;;;3.53;2.13;;;;;;;27.30;43.10;99266.94;5008767;28;20037;-84
2022/07/10 08:56:16;;;;;;;6.15;2.40;;;;;;;26.96;44.62;99269.16;5008560;28;20044;-84
2022/07/10 08:58:42;;;;;;;3.35;2.15;;;;;;;27.12;46.42;99282.16;5008295;28;20504;-81
2022/07/10 09:01:08;;;;;;;3.17;2.30;;;;;;;27.46;45.13;99276.41;5007550;28;20471;-84
2022/07/10 09:03:33;;;;;;;2.65;1.90;;;;;;;27.40;44.49;99271.56;5008611;28;20065;-83
2022/07/10 09:06:00;;;;;;;4.50;2.90;;;;;;;27.14;44.47;99281.03;5008198;28;20030;-85
2022/07/10 09:08:33;;;;;;;3.47;1.90;;;;;;;26.95;44.17;99252.06;5008161;28;20038;-84
2022/07/10 09:11:15;;;;;;;3.17;2.20;;;;;;;26.75;43.87;99263.84;5008973;28;20565;-84
2022/07/10 09:14:04;;;;;;;3.85;2.40;;;;;;;26.59;45.32;99259.75;5008796;28;20108;-83
2022/07/10 09:16:32;;;;;;;3.15;1.88;;;;;;;26.46;44.19;99261.81;4990662;28;20125;-85
2022/07/10 09:19:13;;;;;;;6.90;2.25;;;;;;;26.54;44.02;99274.66;5007933;28;20068;-84
2022/07/10 09:21:39;;;;;;;3.22;2.15;;;;;;;26.72;44.12;99292.00;5009238;28;20042;-83
2022/07/10 09:24:07;;;;;;;3.17;1.90;;;;;;;26.43;45.03;99290.00;5008672;28;20415;-86
2022/07/10 09:26:33;;;;;;;2.60;1.95;;;;;;;26.57;44.50;99263.56;5008139;28;20495;-84
2022/07/10 09:29:10;;;;;;;5.35;2.80;;;;;;;26.32;45.06;99262.19;5008305;28;20092;-87
2022/07/10 09:32:11;;;;;;;4.35;3.17;;;;;;;26.44;45.08;99293.56;5008254;28;20056;-84
2022/07/10 09:34:40;;;;;;;3.15;2.47;;;;;;;26.11;46.43;99289.25;4926886;29;20036;-84
2022/07/10 09:37:24;;;;;;;4.00;2.55;;;;;;;26.21;47.63;99296.44;4989581;28;20049;-83
2022/07/10 09:40:03;;;;;;;3.25;2.28;;;;;;;26.02;46.14;99278.22;5007783;28;20076;-81
2022/07/10 09:42:33;;;;;;;3.47;2.30;;;;;;;26.47;46.33;99296.00;5008799;28;20120;-81
2022/07/10 09:45:11;;;;;;;4.68;2.80;;;;;;;26.33;44.98;99302.59;5007853;28;20771;-84
2022/07/10 09:47:37;;;;;;;6.50;3.50;;;;;;;26.15;47.78;99293.38;5008120;28;20035;-82
2022/07/10 09:50:03;;;;;;;4.18;2.90;;;;;;;26.05;45.51;99277.97;5007636;28;20165;-83
2022/07/10 09:52:29;;;;;;;4.32;2.78;;;;;;;26.21;44.80;99284.75;5007587;28;20124;-82
2022/07/10 09:54:56;;;;;;;3.72;2.67;;;;;;;26.56;44.66;99288.94;5007715;28;21933;-83
2022/07/10 09:57:27;;;;;;;4.53;2.78;;;;;;;26.84;47.43;99292.75;5007589;28;20092;-82
2022/07/10 09:59:55;;;;;;;4.65;2.85;;;;;;;27.36;43.82;99291.78;5008158;28;20033;-84
2022/07/10 10:02:21;;;;;;;4.20;2.67;;;;;;;27.05;42.83;99254.81;5007605;28;20034;-85
2022/07/10 10:04:49;;;;;;;4.20;2.90;;;;;;;26.84;43.32;99260.31;5007678;28;20033;-84
2022/07/10 10:07:18;;;;;;;3.83;2.55;;;;;;;27.02;43.83;99282.16;5007667;28;20030;-81
2022/07/10 10:09:56;;;;;;;3.78;2.38;;;;;;;26.85;45.55;99282.78;5007743;28;20496;-82
2022/07/10 10:12:47;;;;;;;3.95;3.05;;;;;;;26.95;47.30;99280.97;5005425;28;20042;-81
2022/07/10 10:15:14;;;;;;;4.00;2.78;;;;;;;26.75;46.57;99259.25;5004080;28;20492;-82
2022/07/10 10:17:41;;;;;;;4.13;3.00;;;;;;;27.28;46.15;99278.91;5007491;28;20037;-81
2022/07/10 10:22:55;;;;;;;4.22;2.65;;;;;;;26.77;44.71;99259.13;5007365;28;20067;-82
2022/07/10 10:25:23;;;;;;;3.05;2.30;;;;;;;26.86;44.59;99265.56;5007437;28;20559;-83
2022/07/10 10:27:50;;;;;;;3.42;2.78;;;;;;;26.82;44.67;99264.13;5002598;28;20421;-82
2022/07/10 10:30:16;;;;;;;4.63;2.80;;;;;;;27.08;44.74;99275.31;5007523;28;20038;-82
2022/07/10 10:32:42;;;;;;;3.85;2.67;;;;;;;27.14;44.70;99267.50;5005828;28;20061;-81
2022/07/10 10:35:09;;;;;;;3.50;2.30;;;;;;;27.19;44.21;99266.22;4989201;28;20050;-80
2022/07/10 10:37:36;;;;;;;3.75;2.85;;;;;;;27.57;43.70;99283.53;5003971;28;20091;-82
2022/07/10 10:40:03;;;;;;;4.85;3.08;;;;;;;27.28;45.68;99273.50;5003405;28;20036;-81
2022/07/10 10:42:35;;;;;;;4.47;2.90;;;;;;;27.19;43.56;99234.59;5004845;28;20112;-86
2022/07/10 10:45:23;;;;;;;6.82;2.65;;;;;;;28.08;42.22;99276.97;5006559;28;20053;-85
2022/07/10 10:48:05;;;;;;;4.50;2.83;;;;;;;28.17;42.47;99277.94;5006922;28;20045;-85
2022/07/10 10:50:43;;;;;;;3.90;2.50;;;;;;;28.26;41.89;99259.97;5006321;28;20038;-85
2022/07/10 10:53:20;;;;;;;3.70;2.38;;;;;;;28.01;40.59;99262.31;5007333;28;20051;-86
2022/07/10 10:56:07;;;;;;;5.68;3.42;;;;;;;28.21;41.63;99265.81;5006638;28;20042;-84
2022/07/10 10:58:46;;;;;;;4.07;2.22;;;;;;;28.12;40.40;99226.03;5006570;28;20037;-85
2022/07/10 11:01:20;;;;;;;4.28;2.88;;;;;;;28.01;40.29;99267.72;5006513;28;20038;-84
2022/07/10 11:04:09;;;;;;;3.93;2.60;;;;;;;27.93;39.80;99273.84;5007258;28;20037;-84
2022/07/10 11:06:48;;;;;;;4.40;2.83;;;;;;;27.92;40.56;99247.72;4998585;28;20092;-84
2022/07/10 11:09:29;;;;;;;3.78;1.88;;;;;;;28.03;38.58;99263.00;4991694;28;20037;-84
2022/07/10 11:12:09;;;;;;;3.13;2.28;;;;;;;27.95;37.38;99265.56;4989860;28;20419;-86
2022/07/10 11:14:39;;;;;;;4.00;2.47;;;;;;;28.10;38.80;99255.13;4989319;28;20470;-84
2022/07/10 11:17:06;;;;;;;2.88;2.17;;;;;;;28.36;38.23;99220.97;5006854;28;20168;-85
2022/07/10 11:19:36;;;;;;;11.18;2.88;;;;;;;28.70;36.67;99236.69;5006634;28;20042;-85
2022/07/10 11:22:32;;;;;;;8.73;7.82;;;;;;;29.28;34.66;99240.06;5003496;28;20042;-86
2022/07/10 11:25:43;;;;;;;3.17;2.58;;;;;;;29.39;36.02;99225.41;5003166;28;20022;-84
2022/07/10 11:28:11;;;;;;;2.80;1.90;;;;;;;29.42;35.85;99238.66;4998643;28;20045;-86
2022/07/10 11:30:50;;;;;;;4.18;2.78;;;;;;;29.86;33.08;99211.56;5004139;28;20034;-85
2022/07/10 11:33:17;;;;;;;6.05;3.70;;;;;;;30.25;33.49;99216.56;5004501;28;20057;-84
2022/07/10 11:35:47;;;;;;;3.05;2.30;;;;;;;30.45;32.84;99224.53;5006018;28;20034;-83
2022/07/10 11:38:12;;;;;;;3.40;2.05;;;;;;;30.43;33.08;99197.50;5004922;28;20045;-85
2022/07/10 11:40:38;;;;;;;3.03;2.22;;;;;;;30.94;32.46;99205.66;5005832;28;20034;-85
2022/07/10 11:43:06;;;;;;;4.30;2.40;;;;;;;30.45;34.75;99205.50;5006278;28;20033;-84
2022/07/10 11:45:36;;;;;;;3.47;2.00;;;;;;;30.80;33.86;99196.25;5005730;28;20037;-82
2022/07/10 11:48:03;;;;;;;3.80;2.50;;;;;;;30.97;31.89;99199.91;5005297;28;20034;-82